Time;durP1;ratioP1;P1;durP2;ratioP2;P2;SDS_P1;SDS_P2;PMS_P1;PMS_P2;Temp;Humidity;BMP_temperature;BMP_pressure;BME280_temperature;BME280_humidity;BME280_pressure;Samples;Min_cycle;Max_cycle;Signal;HPM_P1;HPM_P2
2024/02/12 00:00:28;;;;;;;0.20;0.20;;;;;;;;;;1302808;22;20451;-78
2024/02/12 00:00:59;;;;;;;3.88;2.67;;;;;;;;;;1303518;22;20041;-79
2024/02/12 00:01:31;;;;;;;3.22;1.70;;;;;;;;;;1303027;22;20327;-78
2024/02/12 00:02:02;;;;;;;0.20;0.20;;;;;;;;;;1297260;22;20082;-78
2024/02/12 00:02:32;;;;;;;0.13;0.13;;;;;;;;;;1306795;22;20003;-78
2024/02/12 00:03:04;;;;;;;4.55;2.38;;;;;;;;;;1303565;22;20007;-78
2024/02/12 00:03:34;;;;;;;1.05;1.05;;;;;;;;;;1303434;22;19995;-78
2024/02/12 00:04:07;;;;;;;0.22;0.22;;;;;;;;;;1310288;22;20034;-79
2024/02/12 00:04:39;;;;;;;0.43;0.43;;;;;;;;;;1302399;22;20007;-79
2024/02/12 00:05:10;;;;;;;0.40;0.40;;;;;;;;;;1296913;22;20026;-78
2024/02/12 00:05:41;;;;;;;0.28;0.28;;;;;;;;;;1296728;22;20003;-78
2024/02/12 00:06:11;;;;;;;0.30;0.30;;;;;;;;;;1297550;22;19995;-78
2024/02/12 00:06:42;;;;;;;0.20;0.20;;;;;;;;;;1303672;22;20037;-78
2024/02/12 00:07:13;;;;;;;1.95;1.65;;;;;;;;;;1309727;22;20440;-78
2024/02/12 00:07:44;;;;;;;0.93;0.93;;;;;;;;;;1310213;22;19995;-78
2024/02/12 00:08:15;;;;;;;0.50;0.50;;;;;;;;;;1310067;22;20003;-78
2024/02/12 00:08:46;;;;;;;1.05;1.05;;;;;;;;;;1310237;22;20009;-78
2024/02/12 00:09:16;;;;;;;0.20;0.20;;;;;;;;;;1309944;22;20144;-78
2024/02/12 00:09:47;;;;;;;2.45;1.98;;;;;;;;;;1303298;22;20014;-79
2024/02/12 00:10:17;;;;;;;1.60;1.55;;;;;;;;;;1296787;22;20007;-79
2024/02/12 00:10:49;;;;;;;0.20;0.20;;;;;;;;;;1290659;23;20087;-79
2024/02/12 00:11:20;;;;;;;1.60;1.50;;;;;;;;;;1290689;22;20461;-79
2024/02/12 00:11:50;;;;;;;0.55;0.55;;;;;;;;;;1297448;22;20014;-78
2024/02/12 00:12:21;;;;;;;1.42;1.30;;;;;;;;;;1303051;22;20098;-78
2024/02/12 00:12:52;;;;;;;11.75;2.25;;;;;;;;;;1303828;22;20104;-79
2024/02/12 00:13:23;;;;;;;1.45;1.35;;;;;;;;;;1302931;22;20003;-78
2024/02/12 00:13:56;;;;;;;0.45;0.45;;;;;;;;;;1296938;22;20003;-78
2024/02/12 00:14:26;;;;;;;1.65;1.00;;;;;;;;;;1290266;23;20008;-78
2024/02/12 00:14:59;;;;;;;0.43;0.43;;;;;;;;;;1284649;23;20008;-78
2024/02/12 00:15:30;;;;;;;0.20;0.20;;;;;;;;;;1285048;23;19997;-78
2024/02/12 00:16:00;;;;;;;0.20;0.20;;;;;;;;;;1291295;22;20004;-78
2024/02/12 00:16:30;;;;;;;3.83;0.57;;;;;;;;;;1297366;22;20004;-79
2024/02/12 00:17:04;;;;;;;0.65;0.65;;;;;;;;;;1296928;22;20000;-79
2024/02/12 00:17:35;;;;;;;0.20;0.20;;;;;;;;;;1303042;22;20021;-79
2024/02/12 00:18:05;;;;;;;0.32;0.32;;;;;;;;;;1303360;22;20011;-79
2024/02/12 00:18:36;;;;;;;0.25;0.25;;;;;;;;;;1304210;22;20097;-79
2024/02/12 00:19:09;;;;;;;2.15;1.58;;;;;;;;;;1310194;22;20033;-78
2024/02/12 00:19:40;;;;;;;1.23;1.17;;;;;;;;;;1309903;22;20006;-80
2024/02/12 00:20:13;;;;;;;0.20;0.20;;;;;;;;;;1310167;22;20007;-79
2024/02/12 00:20:44;;;;;;;2.03;1.85;;;;;;;;;;1303408;22;20358;-79
2024/02/12 00:21:14;;;;;;;0.30;0.30;;;;;;;;;;1302988;22;20038;-79
2024/02/12 00:21:48;;;;;;;0.43;0.43;;;;;;;;;;1303282;22;20086;-79
2024/02/12 00:22:20;;;;;;;0.60;0.60;;;;;;;;;;1302953;22;20007;-78
2024/02/12 00:22:50;;;;;;;0.22;0.22;;;;;;;;;;1303533;22;20436;-78
2024/02/12 00:23:21;;;;;;;0.38;0.38;;;;;;;;;;1303003;22;20003;-78
2024/02/12 00:23:51;;;;;;;0.17;0.17;;;;;;;;;;1303397;22;20007;-79
2024/02/12 00:26:25;;;;;;;;;;;;;;;;;;1312253;22;19994;-78
2024/02/12 00:27:00;;;;;;;0.93;0.93;;;;;;;;;;1310337;22;20310;-78
2024/02/12 00:27:31;;;;;;;0.25;0.25;;;;;;;;;;1303292;22;20003;-79
2024/02/12 00:28:02;;;;;;;0.25;0.25;;;;;;;;;;1296860;22;20038;-79
2024/02/12 00:28:33;;;;;;;0.20;0.20;;;;;;;;;;1296765;22;19999;-79
2024/02/12 00:29:05;;;;;;;1.40;1.35;;;;;;;;;;1297003;22;20403;-79
2024/02/12 00:29:37;;;;;;;1.40;1.38;;;;;;;;;;1297430;22;20008;-79
2024/02/12 00:30:12;;;;;;;0.90;0.90;;;;;;;;;;1303752;22;20003;-79
2024/02/12 00:30:42;;;;;;;0.40;0.40;;;;;;;;;;1296769;22;19999;-79
2024/02/12 00:31:13;;;;;;;0.20;0.20;;;;;;;;;;1296645;22;20049;-79
2024/02/12 00:31:43;;;;;;;1.30;0.52;;;;;;;;;;1290500;23;20003;-79
2024/02/12 00:32:14;;;;;;;1.45;1.35;;;;;;;;;;1290297;22;20075;-78
2024/02/12 00:32:44;;;;;;;0.63;0.63;;;;;;;;;;1297041;22;20010;-79
2024/02/12 00:33:15;;;;;;;0.65;0.65;;;;;;;;;;1296880;22;20090;-79
2024/02/12 00:33:48;;;;;;;0.20;0.20;;;;;;;;;;1302515;22;20725;-80
2024/02/12 00:34:23;;;;;;;0.40;0.40;;;;;;;;;;1303507;22;20056;-79
2024/02/12 00:35:00;;;;;;;0.63;0.63;;;;;;;;;;1303848;22;20091;-79
2024/02/12 00:35:31;;;;;;;1.55;1.30;;;;;;;;;;1303209;22;20013;-79
2024/02/12 00:36:03;;;;;;;6.60;4.00;;;;;;;;;;1303642;22;20007;-78
2024/02/12 00:36:34;;;;;;;0.65;0.57;;;;;;;;;;1296805;22;20066;-79
2024/02/12 00:37:05;;;;;;;3.15;2.92;;;;;;;;;;1290354;22;20019;-79
2024/02/12 00:37:35;;;;;;;2.47;2.28;;;;;;;;;;1290158;23;20049;-79
2024/02/12 00:38:05;;;;;;;0.73;0.73;;;;;;;;;;1290702;22;20004;-79
2024/02/12 00:38:39;;;;;;;0.10;0.10;;;;;;;;;;1290487;22;20004;-79
2024/02/12 00:39:09;;;;;;;0.45;0.45;;;;;;;;;;1296687;22;20004;-79
2024/02/12 00:39:40;;;;;;;0.80;0.68;;;;;;;;;;1296617;22;20409;-79
2024/02/12 00:41:30;;;;;;;0.75;0.75;;;;;;;;;;1312989;22;20260;-78
2024/02/12 00:44:36;;;;;;;0.47;0.47;;;;;;;;;;1310162;22;19925;-79
2024/02/12 00:45:08;;;;;;;0.20;0.20;;;;;;;;;;1310099;22;19994;-78
2024/02/12 00:45:40;;;;;;;0.13;0.13;;;;;;;;;;1309792;22;20086;-79
2024/02/12 00:46:11;;;;;;;0.45;0.45;;;;;;;;;;1310180;22;20010;-78
2024/02/12 00:46:45;;;;;;;0.50;0.50;;;;;;;;;;1310135;22;20089;-79
2024/02/12 00:47:16;;;;;;;1.50;1.40;;;;;;;;;;1302776;22;20106;-79
2024/02/12 00:47:46;;;;;;;0.17;0.17;;;;;;;;;;1296720;22;20010;-79
2024/02/12 00:48:18;;;;;;;1.10;1.05;;;;;;;;;;1296803;22;20059;-79
2024/02/12 00:48:49;;;;;;;0.43;0.43;;;;;;;;;;1297434;22;20011;-79
2024/02/12 00:49:20;;;;;;;0.10;0.10;;;;;;;;;;1303630;22;20003;-79
2024/02/12 00:49:50;;;;;;;0.95;0.95;;;;;;;;;;1310101;22;20085;-79
2024/02/12 00:50:21;;;;;;;0.68;0.68;;;;;;;;;;1309973;22;20014;-79
2024/02/12 00:50:51;;;;;;;0.10;0.10;;;;;;;;;;1310265;22;20014;-79
2024/02/12 00:51:22;;;;;;;0.60;0.60;;;;;;;;;;1302725;22;20056;-78
2024/02/12 00:51:54;;;;;;;0.63;0.63;;;;;;;;;;1303348;22;19999;-79
2024/02/12 00:52:25;;;;;;;1.92;1.65;;;;;;;;;;1302840;22;20007;-79
2024/02/12 00:52:55;;;;;;;0.80;0.80;;;;;;;;;;1303965;22;20451;-79
2024/02/12 00:53:26;;;;;;;0.68;0.68;;;;;;;;;;1302776;22;20331;-79
2024/02/12 00:53:56;;;;;;;2.00;1.20;;;;;;;;;;1303460;22;19999;-79
2024/02/12 00:54:29;;;;;;;0.30;0.30;;;;;;;;;;1296633;22;20042;-79
2024/02/12 00:55:00;;;;;;;1.08;1.02;;;;;;;;;;1291237;22;20341;-79
2024/02/12 00:55:30;;;;;;;0.20;0.20;;;;;;;;;;1296548;22;20054;-79
2024/02/12 00:56:02;;;;;;;3.63;1.85;;;;;;;;;;1291180;22;20042;-79
2024/02/12 00:56:33;;;;;;;0.60;0.60;;;;;;;;;;1290549;22;20046;-79
2024/02/12 00:57:04;;;;;;;0.20;0.20;;;;;;;;;;1296849;22;20004;-78
2024/02/12 00:57:35;;;;;;;0.20;0.20;;;;;;;;;;1297190;22;20007;-79
2024/02/12 00:58:06;;;;;;;0.20;0.20;;;;;;;;;;1297284;22;20008;-80
2024/02/12 00:58:37;;;;;;;0.95;0.95;;;;;;;;;;1303554;22;20011;-79
2024/02/12 01:07:09;;;;;;;0.35;0.35;;;;;;;;;;1312024;22;19902;-78
2024/02/12 01:07:40;;;;;;;0.38;0.38;;;;;;;;;;1309909;22;20013;-78
2024/02/12 01:08:10;;;;;;;2.30;1.05;;;;;;;;;;1302946;22;20473;-78
2024/02/12 01:08:41;;;;;;;0.40;0.40;;;;;;;;;;1303173;22;20010;-79
2024/02/12 01:09:12;;;;;;;0.52;0.52;;;;;;;;;;1301687;22;20007;-79
2024/02/12 01:09:42;;;;;;;0.55;0.55;;;;;;;;;;1296673;22;20012;-78
2024/02/12 01:10:13;;;;;;;0.77;0.77;;;;;;;;;;1301999;22;20007;-79
2024/02/12 01:10:45;;;;;;;0.75;0.75;;;;;;;;;;1302938;22;20034;-79
2024/02/12 01:11:16;;;;;;;0.30;0.30;;;;;;;;;;1296440;22;20000;-79
2024/02/12 01:11:46;;;;;;;0.40;0.40;;;;;;;;;;1302932;22;20019;-79
2024/02/12 01:12:17;;;;;;;0.40;0.40;;;;;;;;;;1301483;22;20010;-79
2024/02/12 01:12:48;;;;;;;0.40;0.38;;;;;;;;;;1302959;22;20003;-79
2024/02/12 01:13:19;;;;;;;0.25;0.25;;;;;;;;;;1302097;22;20030;-79
2024/02/12 01:13:49;;;;;;;0.43;0.43;;;;;;;;;;1302649;22;19998;-79
2024/02/12 01:14:20;;;;;;;0.55;0.55;;;;;;;;;;1295382;22;20144;-79
2024/02/12 01:14:51;;;;;;;0.20;0.20;;;;;;;;;;1296150;22;20034;-80
2024/02/12 01:15:21;;;;;;;1.65;0.52;;;;;;;;;;1302036;22;20003;-79
2024/02/12 01:15:52;;;;;;;0.20;0.20;;;;;;;;;;1296289;22;20004;-79
2024/02/12 01:16:22;;;;;;;0.10;0.10;;;;;;;;;;1302492;22;20069;-79
2024/02/12 01:16:53;;;;;;;0.30;0.30;;;;;;;;;;1302583;22;20003;-79
2024/02/12 01:17:24;;;;;;;0.98;0.90;;;;;;;;;;1296355;22;20031;-80
2024/02/12 01:17:54;;;;;;;0.55;0.55;;;;;;;;;;1295847;22;20074;-79
2024/02/12 01:18:25;;;;;;;16.05;2.00;;;;;;;;;;1294766;22;20078;-79
2024/02/12 01:18:55;;;;;;;1.15;1.15;;;;;;;;;;1296477;22;20004;-79
2024/02/12 01:19:26;;;;;;;0.95;0.95;;;;;;;;;;1302280;22;20078;-78
2024/02/12 01:19:56;;;;;;;0.50;0.50;;;;;;;;;;1302411;22;20038;-78
2024/02/12 01:20:27;;;;;;;1.27;1.27;;;;;;;;;;1302409;22;20133;-78
2024/02/12 01:20:57;;;;;;;0.55;0.55;;;;;;;;;;1302849;22;20048;-79
2024/02/12 01:21:29;;;;;;;0.93;0.93;;;;;;;;;;1302480;22;20103;-79
2024/02/12 01:22:05;;;;;;;0.45;0.45;;;;;;;;;;1296906;22;20008;-79
2024/02/12 01:22:35;;;;;;;0.47;0.47;;;;;;;;;;1302048;22;20447;-79
2024/02/12 01:23:06;;;;;;;0.40;0.40;;;;;;;;;;1295907;22;20004;-79
2024/02/12 01:23:37;;;;;;;1.58;1.48;;;;;;;;;;1289871;22;20341;-78
2024/02/12 01:24:07;;;;;;;1.00;1.00;;;;;;;;;;1288797;23;20629;-79
2024/02/12 01:24:37;;;;;;;0.57;0.57;;;;;;;;;;1282371;23;20341;-79
2024/02/12 01:25:08;;;;;;;1.40;1.35;;;;;;;;;;1287624;22;20091;-79
2024/02/12 01:26:11;;;;;;;0.90;0.90;;;;;;;;;;1301970;22;20010;-79
2024/02/12 01:26:42;;;;;;;0.40;0.40;;;;;;;;;;1309104;22;19999;-79
2024/02/12 01:27:12;;;;;;;0.60;0.60;;;;;;;;;;1303186;22;20054;-79
2024/02/12 01:30:23;;;;;;;1.92;1.83;;;;;;;;;;1279059;22;19996;-79
2024/02/12 01:32:15;;;;;;;3.42;1.77;;;;;;;;;;1276528;22;19958;-78
2024/02/12 01:32:45;;;;;;;2.88;2.22;;;;;;;;;;1274385;23;20024;-78
2024/02/12 01:33:20;;;;;;;0.20;0.20;;;;;;;;;;1276062;23;20024;-80
2024/02/12 01:33:52;;;;;;;0.25;0.25;;;;;;;;;;1275243;23;20081;-81
2024/02/12 01:41:43;;;;;;;0.50;0.50;;;;;;;;;;1277901;23;19911;-78
2024/02/12 01:44:13;;;;;;;;;;;;;;;;;;1276998;23;20017;-77
2024/02/12 01:45:03;;;;;;;0.35;0.35;;;;;;;;;;1276930;23;20251;-78
2024/02/12 01:45:34;;;;;;;0.20;0.20;;;;;;;;;;1269450;23;20029;-78
2024/02/12 01:46:48;;;;;;;;;;;;;;;;;;1265405;23;20006;-79
2024/02/12 01:49:22;;;;;;;;;;;;;;;;;;1278403;23;20004;-79
2024/02/12 01:58:33;;;;;;;;;;;;;;;;;;1279908;23;20366;-79
2024/02/12 02:10:14;;;;;;;0.40;0.40;;;;;;;;;;1277511;23;19949;-78
2024/02/12 02:14:45;;;;;;;0.28;0.28;;;;;;;;;;1274633;23;19916;-78
2024/02/12 02:15:56;;;;;;;;;;;;;;;;;;1276878;23;19939;-78
2024/02/12 02:31:43;;;;;;;;;;;;;;;;;;1297254;22;20234;-80
2024/02/12 02:32:14;;;;;;;0.45;0.45;;;;;;;;;;1308168;22;19907;-79
2024/02/12 02:32:44;;;;;;;0.30;0.30;;;;;;;;;;1308677;22;20006;-78
2024/02/12 02:33:15;;;;;;;0.35;0.35;;;;;;;;;;1307968;22;20003;-80
2024/02/12 02:33:46;;;;;;;3.20;2.83;;;;;;;;;;1300417;22;20003;-79
2024/02/12 02:35:37;;;;;;;1.20;1.20;;;;;;;;;;1306920;22;20869;-78
2024/02/12 02:36:48;;;;;;;;;;;;;;;;;;1275957;22;19973;-79
2024/02/12 02:37:19;;;;;;;0.20;0.20;;;;;;;;;;1275426;23;19965;-79
2024/02/12 02:37:49;;;;;;;0.50;0.50;;;;;;;;;;1275631;22;20020;-79
2024/02/12 02:38:20;;;;;;;0.73;0.73;;;;;;;;;;1275239;23;20100;-79
2024/02/12 02:38:50;;;;;;;0.65;0.65;;;;;;;;;;1268754;22;20013;-79
2024/02/12 02:39:21;;;;;;;1.38;1.38;;;;;;;;;;1268141;23;20315;-79
2024/02/12 02:39:52;;;;;;;3.97;2.20;;;;;;;;;;1268145;23;20016;-79
2024/02/12 02:40:22;;;;;;;0.93;0.93;;;;;;;;;;1261722;22;20044;-79
2024/02/12 02:40:53;;;;;;;0.25;0.25;;;;;;;;;;1294329;22;20011;-79
2024/02/12 02:41:24;;;;;;;0.30;0.30;;;;;;;;;;1295126;22;20094;-78
2024/02/12 02:45:12;;;;;;;9.15;1.02;;;;;;;;;;1277017;22;20333;-79
2024/02/12 02:45:42;;;;;;;1.10;1.10;;;;;;;;;;1269864;23;20466;-80
2024/02/12 02:52:43;;;;;;;;;;;;;;;;;;1279821;23;20004;-79
2024/02/12 02:55:54;;;;;;;;;;;;;;;;;;1280339;23;20012;-78
2024/02/12 02:59:06;;;;;;;;;;;;;;;;;;1280081;23;20020;-78
2024/02/12 02:59:36;;;;;;;1.90;1.80;;;;;;;;;;1278414;23;19941;-78
2024/02/12 03:00:09;;;;;;;1.23;1.13;;;;;;;;;;1274858;23;20051;-78
2024/02/12 03:00:41;;;;;;;0.45;0.45;;;;;;;;;;1268242;23;20318;-80
2024/02/12 03:02:32;;;;;;;0.20;0.20;;;;;;;;;;1273800;23;20217;-81
2024/02/12 03:11:33;;;;;;;;;;;;;;;;;;1131898;23;3416873;-80
2024/02/12 03:12:58;;;;;;;1.75;1.13;;;;;;;;;;1272585;23;19908;-80
2024/02/12 03:13:29;;;;;;;2.10;1.10;;;;;;;;;;1262649;23;20037;-81
2024/02/12 03:23:59;;;;;;;1.00;0.90;;;;;;;;;;1287304;22;20012;-79
2024/02/12 03:24:30;;;;;;;0.38;0.38;;;;;;;;;;1301361;22;20019;-79
2024/02/12 03:25:40;;;;;;;;;;;;;;;;;;1302225;22;20395;-79
2024/02/12 03:26:11;;;;;;;2.83;1.08;;;;;;;;;;1299110;22;19981;-79
2024/02/12 03:28:01;;;;;;;;;;;;;;;;;;1290810;22;20087;-79
2024/02/12 03:28:35;;;;;;;0.68;0.65;;;;;;;;;;1297793;22;19985;-79
2024/02/12 03:33:36;;;;;;;1.05;0.90;;;;;;;;;;1309614;22;20112;-80
2024/02/12 03:40:47;;;;;;;0.75;0.75;;;;;;;;;;1312240;22;19913;-81
2024/02/12 03:41:23;;;;;;;3.53;1.13;;;;;;;;;;1301403;22;20557;-80
2024/02/12 03:41:54;;;;;;;18.65;1.35;;;;;;;;;;1288133;22;20014;-79
2024/02/12 03:42:27;;;;;;;0.77;0.77;;;;;;;;;;1291317;22;20367;-79
2024/02/12 04:09:32;;;;;;;;;;;;;;;;;;1276344;22;19920;-77
2024/02/12 04:25:39;;;;;;;0.35;0.35;;;;;;;;;;1296393;22;19911;-78
2024/02/12 04:26:16;;;;;;;1.98;1.38;;;;;;;;;;1300730;22;20454;-77
2024/02/12 04:26:46;;;;;;;0.65;0.65;;;;;;;;;;1298583;22;20011;-77
2024/02/12 04:28:00;;;;;;;;;;;;;;;;;;1299985;22;20543;-78
2024/02/12 04:28:32;;;;;;;0.30;0.30;;;;;;;;;;1292880;22;20052;-76
2024/02/12 04:29:07;;;;;;;1.27;1.17;;;;;;;;;;1298648;22;20236;-79
2024/02/12 04:29:39;;;;;;;1.42;1.33;;;;;;;;;;1299077;22;20011;-78
2024/02/12 04:30:15;;;;;;;1.25;1.15;;;;;;;;;;1284024;22;20276;-79
2024/02/12 04:30:48;;;;;;;1.67;0.88;;;;;;;;;;1269217;23;20024;-76
2024/02/12 04:31:20;;;;;;;2.80;2.03;;;;;;;;;;1268668;23;20368;-75
2024/02/12 04:31:52;;;;;;;2.22;1.10;;;;;;;;;;1257693;23;20386;-76
2024/02/12 04:32:24;;;;;;;0.30;0.30;;;;;;;;;;1254553;23;20006;-76
2024/02/12 04:32:55;;;;;;;2.10;1.17;;;;;;;;;;1260816;23;20016;-74
2024/02/12 04:33:27;;;;;;;0.35;0.35;;;;;;;;;;1267786;23;20012;-74
2024/02/12 04:33:58;;;;;;;0.38;0.38;;;;;;;;;;1272834;23;20160;-75
2024/02/12 04:34:29;;;;;;;13.23;1.15;;;;;;;;;;1273174;22;20429;-75
2024/02/12 04:35:01;;;;;;;3.65;1.35;;;;;;;;;;1266250;22;20427;-76
2024/02/12 04:35:35;;;;;;;1.08;1.08;;;;;;;;;;1266825;23;20821;-75
2024/02/12 04:36:08;;;;;;;0.35;0.32;;;;;;;;;;1268150;23;20441;-76
2024/02/12 04:36:40;;;;;;;2.00;1.85;;;;;;;;;;1268909;23;20009;-76
2024/02/12 04:37:11;;;;;;;1.45;1.35;;;;;;;;;;1266079;23;20044;-75
2024/02/12 04:37:45;;;;;;;2.15;1.30;;;;;;;;;;1261087;23;20532;-75
2024/02/12 04:38:15;;;;;;;1.17;0.85;;;;;;;;;;1262467;23;20014;-76
2024/02/12 04:38:49;;;;;;;0.95;0.95;;;;;;;;;;1260817;23;20013;-78
2024/02/12 04:39:20;;;;;;;1.30;1.27;;;;;;;;;;1261462;23;20418;-77
2024/02/12 04:39:51;;;;;;;0.45;0.45;;;;;;;;;;1257882;23;20101;-76
2024/02/12 04:40:25;;;;;;;1.63;1.48;;;;;;;;;;1261712;22;20021;-76
2024/02/12 04:41:00;;;;;;;1.20;1.05;;;;;;;;;;1273370;23;20142;-76
2024/02/12 04:41:40;;;;;;;0.47;0.47;;;;;;;;;;1274060;23;20124;-76
2024/02/12 04:42:11;;;;;;;;;;;;;;;;;;1273362;23;20433;-77
2024/02/12 04:42:42;;;;;;;1.95;1.85;;;;;;;;;;1272479;23;20181;-75
2024/02/12 04:43:13;;;;;;;0.47;0.47;;;;;;;;;;1268230;23;20416;-75
2024/02/12 04:43:45;;;;;;;1.13;1.13;;;;;;;;;;1261475;23;20110;-76
2024/02/12 04:44:18;;;;;;;3.20;2.75;;;;;;;;;;1263685;23;20005;-75
2024/02/12 04:44:50;;;;;;;1.17;0.82;;;;;;;;;;1259130;23;20006;-76
2024/02/12 04:46:24;;;;;;;1.00;0.80;;;;;;;;;;1297454;22;20011;-77
2024/02/12 04:46:58;;;;;;;3.15;2.17;;;;;;;;;;1296640;22;20530;-75
2024/02/12 04:49:02;;;;;;;0.75;0.75;;;;;;;;;;1292042;22;19919;-77
2024/02/12 04:49:36;;;;;;;0.15;0.15;;;;;;;;;;1292430;22;20049;-77
2024/02/12 04:50:07;;;;;;;2.47;1.75;;;;;;;;;;1285077;23;20000;-75
2024/02/12 04:50:40;;;;;;;1.33;1.30;;;;;;;;;;1284807;23;20008;-76
2024/02/12 04:51:14;;;;;;;3.60;1.88;;;;;;;;;;1288978;22;20008;-75
2024/02/12 04:51:46;;;;;;;0.63;0.63;;;;;;;;;;1292738;22;20031;-77
2024/02/12 04:52:18;;;;;;;0.22;0.22;;;;;;;;;;1281046;22;20439;-77
2024/02/12 04:53:26;;;;;;;0.55;0.55;;;;;;;;;;1290548;22;20478;-77
2024/02/12 04:53:58;;;;;;;33.97;1.67;;;;;;;;;;1295227;22;20097;-76
2024/02/12 04:54:29;;;;;;;0.63;0.63;;;;;;;;;;1298672;22;20007;-76
2024/02/12 04:55:00;;;;;;;3.72;2.28;;;;;;;;;;1304378;22;20034;-76
2024/02/12 04:55:30;;;;;;;5.15;2.70;;;;;;;;;;1306476;22;20049;-76
2024/02/12 04:56:04;;;;;;;0.28;0.28;;;;;;;;;;1306028;22;20010;-76
2024/02/12 04:56:34;;;;;;;0.22;0.22;;;;;;;;;;1300405;22;20525;-77
2024/02/12 04:57:06;;;;;;;2.42;1.55;;;;;;;;;;1298692;22;20026;-74
2024/02/12 04:57:39;;;;;;;2.40;1.52;;;;;;;;;;1293562;22;20007;-77
2024/02/12 04:58:12;;;;;;;0.40;0.40;;;;;;;;;;1293440;22;20014;-78
2024/02/12 04:58:44;;;;;;;2.35;0.75;;;;;;;;;;1299697;22;20070;-76
2024/02/12 04:59:16;;;;;;;1.38;1.27;;;;;;;;;;1301044;22;20154;-77
2024/02/12 04:59:46;;;;;;;0.75;0.43;;;;;;;;;;1296807;22;20019;-77
2024/02/12 05:00:17;;;;;;;1.13;1.13;;;;;;;;;;1300004;22;20391;-78
2024/02/12 05:00:48;;;;;;;1.13;1.13;;;;;;;;;;1296874;22;19995;-76
2024/02/12 05:01:19;;;;;;;5.70;2.75;;;;;;;;;;1267461;23;20013;-77
2024/02/12 05:01:50;;;;;;;4.57;0.65;;;;;;;;;;1273263;23;20009;-78
2024/02/12 05:02:21;;;;;;;1.67;1.58;;;;;;;;;;1267714;23;19998;-76
2024/02/12 05:02:52;;;;;;;0.32;0.32;;;;;;;;;;1264461;23;20421;-75
2024/02/12 05:03:22;;;;;;;0.60;0.60;;;;;;;;;;1259839;22;20501;-76
2024/02/12 05:03:53;;;;;;;0.40;0.40;;;;;;;;;;1256508;22;20010;-77
2024/02/12 05:04:25;;;;;;;2.05;1.95;;;;;;;;;;1272169;22;19997;-80
2024/02/12 05:05:00;;;;;;;1.58;1.23;;;;;;;;;;1292842;22;20429;-80
2024/02/12 05:05:31;;;;;;;0.47;0.47;;;;;;;;;;1282956;22;20004;-80
2024/02/12 05:06:02;;;;;;;0.40;0.40;;;;;;;;;;1294587;22;20072;-76
2024/02/12 05:06:33;;;;;;;0.20;0.20;;;;;;;;;;1294111;22;20055;-76
2024/02/12 05:07:11;;;;;;;0.88;0.85;;;;;;;;;;1286470;22;20085;-76
2024/02/12 05:08:26;;;;;;;0.32;0.32;;;;;;;;;;1286425;22;20031;-77
2024/02/12 05:08:59;;;;;;;0.85;0.77;;;;;;;;;;1292582;22;20038;-74
2024/02/12 05:09:35;;;;;;;3.35;1.77;;;;;;;;;;1281052;22;20244;-77
2024/02/12 05:10:09;;;;;;;0.68;0.68;;;;;;;;;;1262351;23;20013;-76
2024/02/12 05:10:40;;;;;;;0.98;0.98;;;;;;;;;;1263383;23;20010;-77
2024/02/12 05:11:15;;;;;;;1.00;0.85;;;;;;;;;;1268054;23;20390;-77
2024/02/12 05:11:50;;;;;;;0.20;0.20;;;;;;;;;;1270573;23;20085;-77
2024/02/12 05:12:28;;;;;;;6.25;5.25;;;;;;;;;;1272818;22;20126;-75
2024/02/12 05:13:06;;;;;;;0.25;0.25;;;;;;;;;;1276349;23;20025;-78
2024/02/12 05:13:43;;;;;;;3.80;2.03;;;;;;;;;;1264325;23;20468;-77
2024/02/12 05:14:29;;;;;;;1.13;1.13;;;;;;;;;;1260711;23;20006;-79
2024/02/12 05:15:07;;;;;;;1.33;0.80;;;;;;;;;;1279846;23;20001;-79
2024/02/12 05:15:45;;;;;;;1.10;1.10;;;;;;;;;;1280907;23;20000;-77
2024/02/12 05:16:29;;;;;;;0.10;0.10;;;;;;;;;;1278469;23;20051;-76
2024/02/12 05:17:03;;;;;;;;;;;;;;;;;;1264412;23;20049;-76
2024/02/12 05:18:06;;;;;;;0.90;0.90;;;;;;;;;;1261088;23;20186;-76
2024/02/12 05:22:35;;;;;;;1.00;0.98;;;;;;;;;;1305960;22;20263;-76
2024/02/12 05:23:08;;;;;;;3.30;0.83;;;;;;;;;;1297972;22;20021;-77
2024/02/12 05:23:44;;;;;;;6.45;2.00;;;;;;;;;;1285755;22;20290;-76
2024/02/12 05:24:14;;;;;;;0.73;0.73;;;;;;;;;;1285898;22;20377;-76
2024/02/12 05:24:47;;;;;;;0.20;0.20;;;;;;;;;;1290944;22;20084;-76
2024/02/12 05:25:19;;;;;;;3.53;1.23;;;;;;;;;;1300998;22;20015;-75
2024/02/12 05:25:50;;;;;;;1.75;1.65;;;;;;;;;;1304888;22;20006;-76
2024/02/12 05:26:21;;;;;;;16.15;2.05;;;;;;;;;;1304469;22;20007;-76
2024/02/12 05:26:51;;;;;;;0.30;0.30;;;;;;;;;;1304907;22;20475;-75
2024/02/12 05:27:22;;;;;;;12.48;1.45;;;;;;;;;;1300050;22;20070;-76
2024/02/12 05:27:54;;;;;;;0.63;0.50;;;;;;;;;;1296524;22;20035;-76
2024/02/12 05:28:27;;;;;;;1.17;1.10;;;;;;;;;;1285481;22;20378;-78
2024/02/12 05:29:00;;;;;;;0.50;0.50;;;;;;;;;;1286629;22;20007;-78
2024/02/12 05:29:37;;;;;;;2.78;2.50;;;;;;;;;;1298796;22;20003;-77
2024/02/12 05:30:13;;;;;;;0.25;0.25;;;;;;;;;;1303513;22;20413;-76
2024/02/12 05:30:51;;;;;;;1.02;1.02;;;;;;;;;;1306977;22;20007;-76
2024/02/12 05:31:23;;;;;;;0.80;0.80;;;;;;;;;;1307969;22;20002;-76
2024/02/12 05:31:54;;;;;;;0.60;0.60;;;;;;;;;;1300715;22;20368;-77
2024/02/12 05:32:28;;;;;;;2.25;1.08;;;;;;;;;;1293263;22;20475;-77
2024/02/12 05:33:01;;;;;;;1.60;0.88;;;;;;;;;;1288018;22;20003;-77
2024/02/12 05:33:33;;;;;;;0.35;0.35;;;;;;;;;;1292616;22;20014;-77
2024/02/12 05:34:04;;;;;;;1.88;1.77;;;;;;;;;;1290377;22;20027;-77
2024/02/12 05:34:38;;;;;;;0.20;0.20;;;;;;;;;;1293508;22;20004;-76
2024/02/12 05:35:09;;;;;;;0.40;0.40;;;;;;;;;;1294269;22;20022;-76
2024/02/12 05:35:40;;;;;;;0.77;0.77;;;;;;;;;;1291382;22;20345;-76
2024/02/12 05:36:17;;;;;;;0.90;0.85;;;;;;;;;;1286484;23;20437;-76
2024/02/12 05:36:48;;;;;;;0.40;0.35;;;;;;;;;;1287479;22;20008;-75
2024/02/12 05:37:19;;;;;;;0.93;0.93;;;;;;;;;;1289380;22;20003;-78
2024/02/12 05:37:51;;;;;;;0.95;0.95;;;;;;;;;;1282945;23;20095;-77
2024/02/12 05:38:22;;;;;;;0.20;0.20;;;;;;;;;;1286345;23;20015;-78
2024/02/12 05:38:53;;;;;;;22.80;2.00;;;;;;;;;;1289265;22;20004;-77
2024/02/12 05:39:25;;;;;;;1.17;1.17;;;;;;;;;;1289124;22;20031;-78
2024/02/12 05:39:59;;;;;;;1.42;1.35;;;;;;;;;;1293445;22;20033;-77
2024/02/12 05:40:30;;;;;;;0.43;0.40;;;;;;;;;;1290895;22;20393;-77
2024/02/12 05:41:02;;;;;;;1.02;0.90;;;;;;;;;;1275488;22;20015;-77
2024/02/12 05:41:33;;;;;;;1.92;1.20;;;;;;;;;;1261311;23;20018;-76
2024/02/12 05:42:05;;;;;;;3.72;2.10;;;;;;;;;;1262187;23;20536;-75
2024/02/12 05:42:38;;;;;;;0.77;0.30;;;;;;;;;;1254221;23;20010;-75
2024/02/12 05:43:11;;;;;;;1.55;0.90;;;;;;;;;;1251843;23;20014;-76
2024/02/12 05:43:42;;;;;;;0.50;0.50;;;;;;;;;;1255788;23;20005;-75
2024/02/12 05:44:13;;;;;;;0.17;0.17;;;;;;;;;;1257455;23;20458;-75
2024/02/12 05:44:45;;;;;;;1.27;1.25;;;;;;;;;;1263574;23;20406;-76
2024/02/12 05:45:15;;;;;;;3.53;0.90;;;;;;;;;;1277380;22;20556;-76
2024/02/12 05:45:47;;;;;;;0.85;0.68;;;;;;;;;;1288537;22;20043;-76
2024/02/12 05:46:19;;;;;;;1.90;1.80;;;;;;;;;;1293895;22;20223;-76
2024/02/12 05:46:50;;;;;;;0.52;0.52;;;;;;;;;;1287369;22;20011;-76
2024/02/12 05:47:21;;;;;;;0.20;0.20;;;;;;;;;;1294745;22;20000;-76
2024/02/12 05:47:52;;;;;;;0.70;0.70;;;;;;;;;;1284562;23;20016;-76
2024/02/12 05:48:23;;;;;;;0.40;0.40;;;;;;;;;;1273597;23;20019;-77
2024/02/12 05:48:54;;;;;;;1.00;0.93;;;;;;;;;;1276149;23;20090;-76
2024/02/12 05:49:30;;;;;;;0.20;0.20;;;;;;;;;;1283233;23;20067;-77
2024/02/12 05:50:01;;;;;;;0.70;0.70;;;;;;;;;;1282288;23;20091;-77
2024/02/12 05:50:32;;;;;;;0.57;0.50;;;;;;;;;;1286946;23;20019;-79
2024/02/12 05:51:09;;;;;;;1.35;1.25;;;;;;;;;;1288777;22;20036;-76
2024/02/12 05:51:43;;;;;;;0.32;0.32;;;;;;;;;;1286696;23;20046;-77
2024/02/12 05:52:16;;;;;;;1.52;1.45;;;;;;;;;;1280842;22;20008;-76
2024/02/12 05:52:46;;;;;;;0.13;0.13;;;;;;;;;;1281113;23;20004;-76
2024/02/12 05:53:17;;;;;;;1.13;1.02;;;;;;;;;;1280299;23;20021;-77
2024/02/12 05:53:50;;;;;;;0.98;0.93;;;;;;;;;;1287299;23;20337;-76
2024/02/12 05:54:25;;;;;;;0.30;0.30;;;;;;;;;;1287179;22;20084;-75
2024/02/12 05:54:55;;;;;;;0.52;0.52;;;;;;;;;;1293842;22;20075;-76
2024/02/12 05:55:26;;;;;;;3.92;1.70;;;;;;;;;;1301370;22;20010;-76
2024/02/12 05:55:57;;;;;;;0.25;0.25;;;;;;;;;;1259527;22;20050;-75
2024/02/12 05:56:29;;;;;;;1.00;0.98;;;;;;;;;;1289577;22;19999;-77
2024/02/12 05:57:39;;;;;;;;;;;;;;;;;;1283944;22;20241;-78
2024/02/12 05:58:10;;;;;;;1.30;0.82;;;;;;;;;;1304761;22;19989;-78
2024/02/12 05:58:41;;;;;;;0.45;0.45;;;;;;;;;;1300968;22;20064;-77
2024/02/12 05:59:13;;;;;;;0.45;0.45;;;;;;;;;;1293361;22;20054;-77
2024/02/12 05:59:47;;;;;;;0.98;0.98;;;;;;;;;;1292715;22;20004;-76
2024/02/12 06:00:19;;;;;;;0.60;0.60;;;;;;;;;;1288792;23;20028;-75
2024/02/12 06:00:54;;;;;;;0.40;0.40;;;;;;;;;;1282634;23;20008;-78
2024/02/12 06:01:25;;;;;;;6.25;2.97;;;;;;;;;;1279679;23;20016;-78
2024/02/12 06:01:55;;;;;;;0.38;0.38;;;;;;;;;;1276436;23;20031;-78
2024/02/12 06:02:26;;;;;;;1.92;1.48;;;;;;;;;;1284538;22;20404;-77
2024/02/12 06:02:57;;;;;;;1.52;1.42;;;;;;;;;;1295233;22;20000;-78
2024/02/12 06:04:02;;;;;;;5.63;1.80;;;;;;;;;;1285576;22;20043;-77
2024/02/12 06:04:34;;;;;;;1.85;1.75;;;;;;;;;;1293714;22;20089;-77
2024/02/12 06:05:38;;;;;;;2.33;2.13;;;;;;;;;;1290933;22;20056;-77
2024/02/12 06:06:46;;;;;;;1.20;1.20;;;;;;;;;;1274973;23;20017;-78
2024/02/12 06:07:18;;;;;;;8.07;2.05;;;;;;;;;;1270989;22;20057;-78